Portada
METAR-TAF:

METAR-TAF

Aeroports :

Reims, França

latitud: 49-12-31N, longitud: 004-09-24E, altitud: 95 m

Observació

L'informe es va fer fa 13 minuts, a les 07:30 UTC
Vent 11 kt del Oest
Temperatura 3°C
Humitat 87%
Pressió 1002 hPa
Visibilitat 10 km o més
Escasses núvols a una alçada de 1700 ft
Cel ennuvolat a una alçada de 2600 ft

METAR: LFQA 260730Z AUTO 27011KT 9999 FEW017 BKN026 03/01 Q1002

Hora: 08:43 (07:43 UTC)


TAF: manca

Observacions i pronòstics meteorològics de més de 4000 aeroports (METAR i TAF).

Les estacions disponibles són els punts grocs i vermells al mapa.

Posi el ratolí al punt desitjat per veure el nom de l'estació.

Feu clic per veure les observacions i els pronòstics meteorològics.

Per canviar el mapa: feu clic els botons verds amb una creu de color negre per apropar; al botó verd amb un guió per allunyar la imatge; o en les fletxes verdes per a mapes adjacents.


METAR-TAF: